Time,TemperatureF,DewpointF,PressureIn,WindDirection,WindDirectionDegrees,WindSpeedMPH,WindSpeedGustMPH,Humidity,HourlyPrecipIn,Conditions,Clouds,dailyrainin,SoftwareType,DateUTC
2013-04-28 00:02:00,36.0,-99.9,29.93,NE,49,11.0,18.0,-999,-99.99,,,-99.99,,2013-04-28 08:02:00,
2013-04-28 00:12:00,36.0,-99.9,29.94,NE,50,15.0,21.0,-999,-99.99,,,-99.99,,2013-04-28 08:12:00,
2013-04-28 00:21:00,36.0,-99.9,29.94,NE,46,15.0,20.0,-999,-99.99,,,-99.99,,2013-04-28 08:21:00,
2013-04-28 00:32:00,36.0,-99.9,29.94,NE,38,17.0,20.0,-999,-99.99,,,-99.99,,2013-04-28 08:32:00,
2013-04-28 00:42:00,35.0,-99.9,29.95,NNE,30,13.0,21.0,-999,-99.99,,,-99.99,,2013-04-28 08:42:00,
2013-04-28 00:52:00,35.0,-99.9,29.95,NNE,30,13.0,19.0,-999,-99.99,,,-99.99,,2013-04-28 08:52:00,
2013-04-28 01:01:00,35.0,-99.9,29.95,NNE,25,15.0,19.0,-999,-99.99,,,-99.99,,2013-04-28 09:01:00,
2013-04-28 01:12:00,34.0,-99.9,29.96,NNE,18,12.0,17.0,-999,-99.99,,,-99.99,,2013-04-28 09:12:00,
2013-04-28 01:22:00,34.0,-99.9,29.96,NNE,14,11.0,15.0,-999,-99.99,,,-99.99,,2013-04-28 09:22:00,
2013-04-28 01:33:00,34.0,-99.9,29.97,NNE,15,10.0,13.0,-999,-99.99,,,-99.99,,2013-04-28 09:33:00,
2013-04-28 01:43:00,33.0,-99.9,29.97,NNE,23,6.0,9.0,-999,-99.99,,,-99.99,,2013-04-28 09:43:00,
2013-04-28 01:53:00,33.0,-99.9,29.97,NNE,25,9.0,12.0,-999,-99.99,,,-99.99,,2013-04-28 09:53:00,
2013-04-28 02:03:00,33.0,-99.9,29.97,North,11,11.0,14.0,-999,-99.99,,,-99.99,,2013-04-28 10:03:00,
2013-04-28 02:12:00,33.0,-99.9,29.97,NNE,17,11.0,15.0,-999,-99.99,,,-99.99,,2013-04-28 10:12:00,
2013-04-28 02:23:00,33.0,-99.9,29.98,NNE,20,9.0,12.0,-999,-99.99,,,-99.99,,2013-04-28 10:23:00,
2013-04-28 02:32:00,33.0,-99.9,29.98,North,10,11.0,14.0,-999,-99.99,,,-99.99,,2013-04-28 10:32:00,
2013-04-28 02:42:00,33.0,-99.9,29.98,NNE,13,9.0,13.0,-999,-99.99,,,-99.99,,2013-04-28 10:42:00,
2013-04-28 02:53:00,33.0,-99.9,29.98,NE,34,5.0,11.0,-999,-99.99,,,-99.99,,2013-04-28 10:53:00,
2013-04-28 03:02:00,33.0,-99.9,29.99,ENE,64,5.0,12.0,-999,-99.99,,,-99.99,,2013-04-28 11:02:00,
2013-04-28 03:11:00,33.0,-99.9,29.99,ENE,68,8.0,13.0,-999,-99.99,,,-99.99,,2013-04-28 11:11:00,
2013-04-28 03:22:00,33.0,-99.9,29.99,NE,54,12.0,17.0,-999,-99.99,,,-99.99,,2013-04-28 11:22:00,
2013-04-28 03:32:00,33.0,-99.9,29.98,NE,43,16.0,20.0,-999,-99.99,,,-99.99,,2013-04-28 11:32:00,
2013-04-28 03:42:00,33.0,-99.9,29.98,NE,45,16.0,21.0,-999,-99.99,,,-99.99,,2013-04-28 11:42:00,
2013-04-28 03:52:00,33.0,-99.9,29.98,NE,37,17.0,22.0,-999,-99.99,,,-99.99,,2013-04-28 11:52:00,
2013-04-28 04:02:00,33.0,-99.9,29.98,NE,41,11.0,17.0,-999,-99.99,,,-99.99,,2013-04-28 12:02:00,
2013-04-28 04:12:00,33.0,-99.9,29.98,NE,49,15.0,25.0,-999,-99.99,,,-99.99,,2013-04-28 12:12:00,
2013-04-28 04:22:00,33.0,-99.9,29.98,NE,52,16.0,23.0,-999,-99.99,,,-99.99,,2013-04-28 12:22:00,
2013-04-28 04:32:00,33.0,-99.9,29.98,NE,45,18.0,24.0,-999,-99.99,,,-99.99,,2013-04-28 12:32:00,
2013-04-28 04:42:00,32.0,-99.9,29.98,NE,44,14.0,24.0,-999,-99.99,,,-99.99,,2013-04-28 12:42:00,
2013-04-28 04:52:00,32.0,-99.9,29.98,NE,40,15.0,23.0,-999,-99.99,,,-99.99,,2013-04-28 12:52:00,
2013-04-28 05:02:00,-999.0,-99.9,29.98,NE,38,12.0,19.0,-999,-99.99,,,-99.99,,2013-04-28 13:02:00,
2013-04-28 05:11:00,-999.0,-99.9,29.99,NNE,23,11.0,14.0,-999,-99.99,,,-99.99,,2013-04-28 13:11:00,
2013-04-28 05:22:00,32.0,-99.9,29.99,NNE,26,9.0,17.0,-999,-99.99,,,-99.99,,2013-04-28 13:22:00,
2013-04-28 05:32:00,-999.0,-99.9,30.00,NE,34,8.0,13.0,-999,-99.99,,,-99.99,,2013-04-28 13:32:00,
2013-04-28 05:42:00,31.0,-99.9,30.00,NE,38,9.0,14.0,-999,-99.99,,,-99.99,,2013-04-28 13:42:00,
2013-04-28 05:52:00,-999.0,-99.9,30.00,NNE,29,10.0,16.0,-999,-99.99,,,-99.99,,2013-04-28 13:52:00,
2013-04-28 06:02:00,-999.0,-99.9,30.00,NNE,19,14.0,17.0,-999,-99.99,,,-99.99,,2013-04-28 14:02:00,
2013-04-28 06:11:00,-999.0,-99.9,30.00,NNE,30,9.0,17.0,-999,-99.99,,,-99.99,,2013-04-28 14:11:00,
2013-04-28 06:22:00,31.0,-99.9,30.00,NNE,23,13.0,19.0,-999,-99.99,,,-99.99,,2013-04-28 14:22:00,
2013-04-28 06:32:00,-999.0,-99.9,30.00,NNE,28,11.0,19.0,-999,-99.99,,,-99.99,,2013-04-28 14:32:00,
2013-04-28 06:42:00,-999.0,-99.9,30.01,NNE,26,12.0,17.0,-999,-99.99,,,-99.99,,2013-04-28 14:42:00,
2013-04-28 06:52:00,32.0,-99.9,30.01,NNE,30,11.0,13.0,-999,-99.99,,,-99.99,,2013-04-28 14:52:00,
2013-04-28 07:02:00,-999.0,-99.9,30.01,NNE,28,10.0,15.0,-999,-99.99,,,-99.99,,2013-04-28 15:02:00,
2013-04-28 07:12:00,-999.0,-99.9,30.01,NNE,31,11.0,17.0,-999,-99.99,,,-99.99,,2013-04-28 15:12:00,
2013-04-28 07:22:00,-999.0,-99.9,30.01,NE,40,10.0,15.0,-999,-99.99,,,-99.99,,2013-04-28 15:22:00,
2013-04-28 07:33:00,-999.0,-99.9,30.01,NNE,32,12.0,16.0,-999,-99.99,,,-99.99,,2013-04-28 15:33:00,
2013-04-28 07:43:00,32.0,-99.9,30.01,NE,37,12.0,18.0,-999,-99.99,,,-99.99,,2013-04-28 15:43:00,
2013-04-28 07:53:00,32.0,-99.9,30.02,NE,37,11.0,19.0,-999,-99.99,,,-99.99,,2013-04-28 15:53:00,
2013-04-28 08:03:00,33.0,-99.9,30.02,NNE,26,14.0,19.0,-999,-99.99,,,-99.99,,2013-04-28 16:03:00,
2013-04-28 08:13:00,33.0,-99.9,30.02,NNE,25,14.0,19.0,-999,-99.99,,,-99.99,,2013-04-28 16:13:00,
2013-04-28 08:23:00,33.0,-99.9,30.02,NNE,24,14.0,18.0,-999,-99.99,,,-99.99,,2013-04-28 16:23:00,
2013-04-28 08:33:00,33.0,-99.9,30.03,NNE,31,13.0,19.0,-999,-99.99,,,-99.99,,2013-04-28 16:33:00,
2013-04-28 08:43:00,33.0,-99.9,30.03,NE,36,13.0,19.0,-999,-99.99,,,-99.99,,2013-04-28 16:43:00,
2013-04-28 08:52:00,33.0,-99.9,30.03,NNE,22,12.0,19.0,-999,-99.99,,,-99.99,,2013-04-28 16:52:00,
2013-04-28 09:02:00,33.0,-99.9,30.03,NE,39,15.0,21.0,-999,-99.99,,,-99.99,,2013-04-28 17:02:00,
2013-04-28 09:12:00,33.0,-99.9,30.03,NE,36,15.0,20.0,-999,-99.99,,,-99.99,,2013-04-28 17:12:00,
2013-04-28 09:22:00,34.0,-99.9,30.03,NNE,33,13.0,21.0,-999,-99.99,,,-99.99,,2013-04-28 17:22:00,
2013-04-28 09:32:00,34.0,-99.9,30.03,NE,36,13.0,19.0,-999,-99.99,,,-99.99,,2013-04-28 17:32:00,
2013-04-28 09:43:00,34.0,-99.9,30.04,NNE,33,13.0,21.0,-999,-99.99,,,-99.99,,2013-04-28 17:43:00,
2013-04-28 09:52:00,34.0,-99.9,30.04,NNE,33,15.0,21.0,-999,-99.99,,,-99.99,,2013-04-28 17:52:00,
2013-04-28 10:02:00,35.0,-99.9,30.04,NNE,33,12.0,17.0,-999,-99.99,,,-99.99,,2013-04-28 18:02:00,
2013-04-28 10:12:00,34.0,-99.9,30.04,NNE,26,15.0,22.0,-999,-99.99,,,-99.99,,2013-04-28 18:12:00,
2013-04-28 10:22:00,34.0,-99.9,30.05,NNE,29,12.0,19.0,-999,-99.99,,,-99.99,,2013-04-28 18:22:00,
2013-04-28 10:32:00,35.0,-99.9,30.05,NE,41,13.0,18.0,-999,-99.99,,,-99.99,,2013-04-28 18:32:00,
2013-04-28 10:42:00,35.0,-99.9,30.05,NE,36,11.0,21.0,-999,-99.99,,,-99.99,,2013-04-28 18:42:00,
2013-04-28 10:52:00,35.0,-99.9,30.05,NNE,33,13.0,22.0,-999,-99.99,,,-99.99,,2013-04-28 18:52:00,
2013-04-28 11:02:00,35.0,-99.9,30.05,NE,46,13.0,22.0,-999,-99.99,,,-99.99,,2013-04-28 19:02:00,
2013-04-28 11:11:00,35.0,-99.9,30.06,NNE,23,14.0,20.0,-999,-99.99,,,-99.99,,2013-04-28 19:11:00,
2013-04-28 11:22:00,36.0,-99.9,30.06,NE,39,13.0,19.0,-999,-99.99,,,-99.99,,2013-04-28 19:22:00,
2013-04-28 11:32:00,35.0,-99.9,30.06,NNE,30,15.0,21.0,-999,-99.99,,,-99.99,,2013-04-28 19:32:00,
2013-04-28 11:42:00,36.0,-99.9,30.07,NNE,25,13.0,19.0,-999,-99.99,,,-99.99,,2013-04-28 19:42:00,
2013-04-28 11:52:00,36.0,-99.9,30.07,NNE,23,15.0,20.0,-999,-99.99,,,-99.99,,2013-04-28 19:52:00,
2013-04-28 12:02:00,36.0,-99.9,30.07,NNE,23,14.0,21.0,-999,-99.99,,,-99.99,,2013-04-28 20:02:00,
2013-04-28 12:12:00,36.0,-99.9,30.08,NNE,21,15.0,19.0,-999,-99.99,,,-99.99,,2013-04-28 20:12:00,
2013-04-28 12:22:00,36.0,-99.9,30.08,NNE,16,11.0,15.0,-999,-99.99,,,-99.99,,2013-04-28 20:22:00,
2013-04-28 12:33:00,36.0,-99.9,30.08,NNE,26,14.0,18.0,-999,-99.99,,,-99.99,,2013-04-28 20:33:00,
2013-04-28 12:42:00,36.0,-99.9,30.08,NNE,22,13.0,18.0,-999,-99.99,,,-99.99,,2013-04-28 20:42:00,
2013-04-28 12:52:00,36.0,-99.9,30.08,NNE,25,14.0,19.0,-999,-99.99,,,-99.99,,2013-04-28 20:52:00,
2013-04-28 13:01:00,37.0,-99.9,30.09,NNE,25,12.0,17.0,-999,-99.99,,,-99.99,,2013-04-28 21:01:00,
2013-04-28 13:12:00,37.0,-99.9,30.09,NNE,32,13.0,16.0,-999,-99.99,,,-99.99,,2013-04-28 21:12:00,
2013-04-28 13:22:00,37.0,-99.9,30.09,NNE,25,10.0,16.0,-999,-99.99,,,-99.99,,2013-04-28 21:22:00,
2013-04-28 13:33:00,37.0,-99.9,30.09,NNE,29,11.0,16.0,-999,-99.99,,,-99.99,,2013-04-28 21:33:00,
2013-04-28 13:43:00,37.0,-99.9,30.09,NNE,33,9.0,14.0,-999,-99.99,,,-99.99,,2013-04-28 21:43:00,
2013-04-28 13:53:00,38.0,-99.9,30.10,NE,34,8.0,16.0,-999,-99.99,,,-99.99,,2013-04-28 21:53:00,
2013-04-28 14:03:00,38.0,-99.9,30.10,NNE,15,8.0,12.0,-999,-99.99,,,-99.99,,2013-04-28 22:03:00,
2013-04-28 14:13:00,38.0,-99.9,30.10,North,7,9.0,12.0,-999,-99.99,,,-99.99,,2013-04-28 22:13:00,
2013-04-28 14:23:00,38.0,-99.9,30.10,NNE,14,8.0,12.0,-999,-99.99,,,-99.99,,2013-04-28 22:23:00,
2013-04-28 14:34:00,38.0,-99.9,30.10,NNE,33,10.0,14.0,-999,-99.99,,,-99.99,,2013-04-28 22:34:00,
2013-04-28 14:43:00,38.0,-99.9,30.10,NNE,30,6.0,11.0,-999,-99.99,,,-99.99,,2013-04-28 22:43:00,
2013-04-28 14:52:00,38.0,-99.9,30.10,NNE,12,7.0,14.0,-999,-99.99,,,-99.99,,2013-04-28 22:52:00,
2013-04-28 15:02:00,38.0,-99.9,30.11,North,357,9.0,14.0,-999,-99.99,,,-99.99,,2013-04-28 23:02:00,
2013-04-28 15:12:00,37.0,-99.9,30.11,North,352,10.0,11.0,-999,-99.99,,,-99.99,,2013-04-28 23:12:00,
2013-04-28 15:22:00,37.0,-99.9,30.11,North,355,10.0,12.0,-999,-99.99,,,-99.99,,2013-04-28 23:22:00,
2013-04-28 15:32:00,37.0,-99.9,30.11,NNW,346,9.0,10.0,-999,-99.99,,,-99.99,,2013-04-28 23:32:00,
2013-04-28 15:42:00,36.0,-99.9,30.11,NNW,342,9.0,11.0,-999,-99.99,,,-99.99,,2013-04-28 23:42:00,
2013-04-28 15:52:00,36.0,-99.9,30.11,NNW,336,10.0,11.0,-999,-99.99,,,-99.99,,2013-04-28 23:52:00,
2013-04-28 16:01:00,36.0,-99.9,30.11,NNW,340,8.0,10.0,-999,-99.99,,,-99.99,,2013-04-29 00:01:00,
2013-04-28 16:11:00,37.0,-99.9,30.10,North,349,10.0,12.0,-999,-99.99,,,-99.99,,2013-04-29 00:11:00,
2013-04-28 16:22:00,37.0,-99.9,30.11,North,355,9.0,11.0,-999,-99.99,,,-99.99,,2013-04-29 00:22:00,
2013-04-28 16:32:00,38.0,-99.9,30.10,NNE,15,9.0,11.0,-999,-99.99,,,-99.99,,2013-04-29 00:32:00,
2013-04-28 16:42:00,38.0,-99.9,30.10,NNW,333,4.0,7.0,-999,-99.99,,,-99.99,,2013-04-29 00:42:00,
2013-04-28 16:52:00,37.0,-99.9,30.10,North,351,7.0,10.0,-999,-99.99,,,-99.99,,2013-04-29 00:52:00,
2013-04-28 17:01:00,36.0,-99.9,30.10,NNW,339,9.0,10.0,-999,-99.99,,,-99.99,,2013-04-29 01:01:00,
2013-04-28 17:12:00,36.0,-99.9,30.10,NW,321,8.0,11.0,-999,-99.99,,,-99.99,,2013-04-29 01:12:00,
2013-04-28 17:22:00,36.0,-99.9,30.10,WNW,288,12.0,15.0,-999,-99.99,,,-99.99,,2013-04-29 01:22:00,
2013-04-28 17:32:00,36.0,-99.9,30.10,WNW,292,12.0,14.0,-999,-99.99,,,-99.99,,2013-04-29 01:32:00,
2013-04-28 17:42:00,37.0,-99.9,30.11,WNW,293,11.0,12.0,-999,-99.99,,,-99.99,,2013-04-29 01:42:00,
2013-04-28 17:52:00,36.0,-99.9,30.11,WNW,283,11.0,13.0,-999,-99.99,,,-99.99,,2013-04-29 01:52:00,
2013-04-28 18:02:00,36.0,-99.9,30.11,West,271,12.0,14.0,-999,-99.99,,,-99.99,,2013-04-29 02:02:00,
2013-04-28 18:11:00,35.0,-99.9,30.11,West,271,12.0,13.0,-999,-99.99,,,-99.99,,2013-04-29 02:11:00,
2013-04-28 18:22:00,36.0,-99.9,30.11,West,273,11.0,13.0,-999,-99.99,,,-99.99,,2013-04-29 02:22:00,
2013-04-28 18:32:00,36.0,-99.9,30.11,West,278,12.0,15.0,-999,-99.99,,,-99.99,,2013-04-29 02:32:00,
2013-04-28 18:42:00,36.0,-99.9,30.11,WNW,283,11.0,12.0,-999,-99.99,,,-99.99,,2013-04-29 02:42:00,
2013-04-28 18:52:00,36.0,-99.9,30.11,WNW,288,11.0,12.0,-999,-99.99,,,-99.99,,2013-04-29 02:52:00,
2013-04-28 19:02:00,36.0,-99.9,30.12,WNW,285,12.0,14.0,-999,-99.99,,,-99.99,,2013-04-29 03:02:00,
2013-04-28 19:12:00,36.0,-99.9,30.12,WNW,282,11.0,12.0,-999,-99.99,,,-99.99,,2013-04-29 03:12:00,
2013-04-28 19:22:00,37.0,-99.9,30.12,WNW,284,11.0,12.0,-999,-99.99,,,-99.99,,2013-04-29 03:22:00,
2013-04-28 19:33:00,37.0,-99.9,30.12,WNW,282,11.0,13.0,-999,-99.99,,,-99.99,,2013-04-29 03:33:00,
2013-04-28 19:43:00,37.0,-99.9,30.13,West,281,10.0,13.0,-999,-99.99,,,-99.99,,2013-04-29 03:43:00,
2013-04-28 19:53:00,36.0,-99.9,30.13,WNW,284,12.0,12.0,-999,-99.99,,,-99.99,,2013-04-29 03:53:00,
2013-04-28 20:03:00,36.0,-99.9,30.13,WNW,284,10.0,12.0,-999,-99.99,,,-99.99,,2013-04-29 04:03:00,
2013-04-28 20:13:00,37.0,-99.9,30.13,WNW,283,11.0,12.0,-999,-99.99,,,-99.99,,2013-04-29 04:13:00,
2013-04-28 20:23:00,36.0,-99.9,30.13,WNW,284,10.0,11.0,-999,-99.99,,,-99.99,,2013-04-29 04:23:00,
2013-04-28 20:33:00,36.0,-99.9,30.13,WNW,284,10.0,12.0,-999,-99.99,,,-99.99,,2013-04-29 04:33:00,
2013-04-28 20:43:00,36.0,-99.9,30.13,WNW,287,11.0,13.0,-999,-99.99,,,-99.99,,2013-04-29 04:43:00,
2013-04-28 20:52:00,36.0,-99.9,30.13,WNW,292,11.0,13.0,-999,-99.99,,,-99.99,,2013-04-29 04:52:00,
2013-04-28 21:02:00,36.0,-99.9,30.13,WNW,292,11.0,13.0,-999,-99.99,,,-99.99,,2013-04-29 05:02:00,
2013-04-28 21:12:00,36.0,-99.9,30.14,WNW,288,12.0,13.0,-999,-99.99,,,-99.99,,2013-04-29 05:12:00,
2013-04-28 21:22:00,36.0,-99.9,30.14,WNW,285,12.0,14.0,-999,-99.99,,,-99.99,,2013-04-29 05:22:00,
2013-04-28 21:32:00,36.0,-99.9,30.14,West,280,10.0,11.0,-999,-99.99,,,-99.99,,2013-04-29 05:32:00,
2013-04-28 21:42:00,36.0,-99.9,30.14,West,279,9.0,11.0,-999,-99.99,,,-99.99,,2013-04-29 05:42:00,
2013-04-28 21:52:00,35.0,-99.9,30.14,West,278,9.0,11.0,-999,-99.99,,,-99.99,,2013-04-29 05:52:00,
2013-04-28 22:02:00,35.0,-99.9,30.14,West,281,5.0,8.0,-999,-99.99,,,-99.99,,2013-04-29 06:02:00,
2013-04-28 22:12:00,35.0,-99.9,30.15,SE,137,0.0,1.0,-999,-99.99,,,-99.99,,2013-04-29 06:12:00,
2013-04-28 22:22:00,35.0,-99.9,30.15,ESE,117,2.0,2.0,-999,-99.99,,,-99.99,,2013-04-29 06:22:00,
2013-04-28 22:32:00,35.0,-99.9,30.16,SSW,203,0.0,2.0,-999,-99.99,,,-99.99,,2013-04-29 06:32:00,
2013-04-28 22:42:00,35.0,-99.9,30.16,WNW,283,3.0,6.0,-999,-99.99,,,-99.99,,2013-04-29 06:42:00,
2013-04-28 22:52:00,35.0,-99.9,30.16,NW,306,2.0,5.0,-999,-99.99,,,-99.99,,2013-04-29 06:52:00,
2013-04-28 23:02:00,35.0,-99.9,30.16,NNW,331,2.0,4.0,-999,-99.99,,,-99.99,,2013-04-29 07:02:00,
2013-04-28 23:11:00,35.0,-99.9,30.16,NNW,336,2.0,4.0,-999,-99.99,,,-99.99,,2013-04-29 07:11:00,
2013-04-28 23:22:00,35.0,-99.9,30.17,WNW,301,1.0,2.0,-999,-99.99,,,-99.99,,2013-04-29 07:22:00,
2013-04-28 23:32:00,34.0,-99.9,30.17,NW,315,0.0,2.0,-999,-99.99,,,-99.99,,2013-04-29 07:32:00,
2013-04-28 23:42:00,35.0,-99.9,30.17,NNW,344,1.0,2.0,-999,-99.99,,,-99.99,,2013-04-29 07:42:00,
2013-04-28 23:52:00,34.0,-99.9,30.17,NW,326,1.0,4.0,-999,-99.99,,,-99.99,,2013-04-29 07:52:00,